createdAt,value
2022-08-23T00:02:26.924Z,20.46
2022-08-23T00:05:07.580Z,20.50
2022-08-23T00:07:39.233Z,20.53
2022-08-23T00:10:08.574Z,20.53
2022-08-23T00:12:35.272Z,20.63
2022-08-23T00:15:02.289Z,20.62
2022-08-23T00:17:33.365Z,20.58
2022-08-23T00:20:00.592Z,20.57
2022-08-23T00:22:27.250Z,20.60
2022-08-23T00:24:53.841Z,20.61
2022-08-23T00:27:20.573Z,20.61
2022-08-23T00:29:50.603Z,20.61
2022-08-23T00:32:20.704Z,20.60
2022-08-23T00:34:47.669Z,20.62
2022-08-23T00:37:14.733Z,20.62
2022-08-23T00:39:41.684Z,20.62
2022-08-23T00:42:59.344Z,20.64
2022-08-23T00:45:55.769Z,20.62
2022-08-23T00:48:23.217Z,20.54
2022-08-23T00:51:14.616Z,20.45
2022-08-23T00:53:47.681Z,20.48
2022-08-23T00:56:18.089Z,20.47
2022-08-23T00:58:46.356Z,20.48
2022-08-23T01:01:16.002Z,20.51
2022-08-23T01:03:53.420Z,20.50
2022-08-23T01:06:47.811Z,20.54
2022-08-23T01:09:18.117Z,20.56
2022-08-23T01:12:08.040Z,20.54
2022-08-23T01:14:40.888Z,20.57
2022-08-23T01:17:14.438Z,20.54
2022-08-23T01:19:49.750Z,20.51
2022-08-23T01:22:26.057Z,20.52
2022-08-23T01:25:07.042Z,20.56
2022-08-23T01:27:36.394Z,20.48
2022-08-23T01:30:05.892Z,20.38
2022-08-23T01:32:37.624Z,20.27
2022-08-23T01:35:04.902Z,20.29
2022-08-23T01:37:31.724Z,20.31
2022-08-23T01:39:58.376Z,20.32
2022-08-23T01:42:25.026Z,20.27
2022-08-23T01:44:51.753Z,20.31
2022-08-23T01:47:18.777Z,20.24
2022-08-23T01:49:45.378Z,20.40
2022-08-23T01:52:11.977Z,20.43
2022-08-23T01:54:38.636Z,20.08
2022-08-23T01:57:06.148Z,20.09
2022-08-23T01:59:33.980Z,20.17
2022-08-23T02:02:00.741Z,20.18
2022-08-23T02:04:27.822Z,20.18
2022-08-23T02:06:54.414Z,20.21
2022-08-23T02:09:21.545Z,20.23
2022-08-23T02:11:49.123Z,20.30
2022-08-23T02:14:18.790Z,20.20
2022-08-23T02:16:56.550Z,20.12
2022-08-23T02:19:33.258Z,20.03
2022-08-23T02:22:00.340Z,19.89
2022-08-23T02:24:27.306Z,19.81
2022-08-23T02:26:57.543Z,19.88
2022-08-23T02:29:25.860Z,19.87
2022-08-23T02:31:52.946Z,19.94
2022-08-23T02:34:20.107Z,20.04
2022-08-23T02:36:47.850Z,20.02
2022-08-23T02:39:16.580Z,20.00
2022-08-23T02:41:44.140Z,20.18
2022-08-23T02:44:11.431Z,20.23
2022-08-23T02:46:39.105Z,20.13
2022-08-23T02:49:06.421Z,19.99
2022-08-23T02:51:34.320Z,20.07
2022-08-23T02:54:01.429Z,20.05
2022-08-23T02:56:28.160Z,20.05
2022-08-23T02:58:54.994Z,20.08
2022-08-23T03:01:35.246Z,20.12
2022-08-23T03:04:03.725Z,20.10
2022-08-23T03:06:30.433Z,19.98
2022-08-23T03:08:57.080Z,19.97
2022-08-23T03:11:25.205Z,19.95
2022-08-23T03:13:53.453Z,19.86
2022-08-23T03:16:20.595Z,19.95
2022-08-23T03:18:48.539Z,19.86
2022-08-23T03:21:16.033Z,19.85
2022-08-23T03:23:42.832Z,19.82
2022-08-23T03:26:11.690Z,19.72
2022-08-23T03:28:40.279Z,19.70
2022-08-23T03:31:08.532Z,19.74
2022-08-23T03:33:35.993Z,19.74
2022-08-23T03:36:06.437Z,19.78
2022-08-23T03:38:34.273Z,20.00
2022-08-23T03:41:01.310Z,20.01
2022-08-23T03:43:28.340Z,19.93
2022-08-23T03:45:54.988Z,19.92
2022-08-23T03:48:21.870Z,19.95
2022-08-23T03:50:48.447Z,20.00
2022-08-23T03:53:15.094Z,20.08
2022-08-23T03:55:43.185Z,20.10
2022-08-23T03:58:10.836Z,20.18
2022-08-23T04:00:38.420Z,20.10
2022-08-23T04:03:05.276Z,20.03
2022-08-23T04:05:31.862Z,20.04
2022-08-23T04:07:58.651Z,20.14
2022-08-23T04:10:25.887Z,20.13
2022-08-23T04:12:54.973Z,20.13
2022-08-23T04:15:22.712Z,20.17
2022-08-23T04:17:49.335Z,20.23
2022-08-23T04:20:16.245Z,20.19
2022-08-23T04:22:42.861Z,20.19
2022-08-23T04:25:33.279Z,20.07
2022-08-23T04:27:59.702Z,19.81
2022-08-23T04:30:27.060Z,19.78
2022-08-23T04:32:53.701Z,19.91
2022-08-23T04:35:22.457Z,19.79
2022-08-23T04:37:49.418Z,19.78
2022-08-23T04:40:35.084Z,19.95
2022-08-23T04:43:02.678Z,19.96
2022-08-23T04:45:29.656Z,19.88
2022-08-23T04:47:56.751Z,19.87
2022-08-23T04:50:23.525Z,19.80
2022-08-23T04:52:50.275Z,19.76
2022-08-23T04:55:17.277Z,19.74
2022-08-23T04:57:44.778Z,19.81
2022-08-23T05:00:13.628Z,19.85
2022-08-23T05:02:40.356Z,19.83
2022-08-23T05:05:08.307Z,19.90
2022-08-23T05:07:41.747Z,19.92
2022-08-23T05:10:13.146Z,19.93
2022-08-23T05:12:40.186Z,19.94
2022-08-23T05:15:07.798Z,20.02
2022-08-23T05:17:34.387Z,20.06
2022-08-23T05:20:01.630Z,20.11
2022-08-23T05:22:28.792Z,20.19
2022-08-23T05:24:55.420Z,20.15
2022-08-23T05:27:22.039Z,20.10
2022-08-23T05:29:48.784Z,20.15
2022-08-23T05:32:15.385Z,20.15
2022-08-23T05:34:42.335Z,20.17
2022-08-23T05:37:08.960Z,20.21
2022-08-23T05:39:36.984Z,20.25
2022-08-23T05:42:08.238Z,20.28
2022-08-23T05:44:36.606Z,20.25
2022-08-23T05:47:10.161Z,20.29
2022-08-23T05:49:37.768Z,20.21
2022-08-23T05:52:06.750Z,20.27
2022-08-23T05:54:34.377Z,20.30
2022-08-23T05:57:00.990Z,20.36
2022-08-23T05:59:27.822Z,20.39
2022-08-23T06:01:54.414Z,20.40
2022-08-23T06:04:21.563Z,20.39
2022-08-23T06:06:48.589Z,20.42
2022-08-23T06:09:17.468Z,20.38
2022-08-23T06:11:46.699Z,20.30
2022-08-23T06:14:14.421Z,20.38
2022-08-23T06:16:44.414Z,20.50
2022-08-23T06:19:11.917Z,20.62
2022-08-23T06:21:39.193Z,20.76
2022-08-23T06:24:07.153Z,20.90
2022-08-23T06:26:38.301Z,21.00
2022-08-23T06:29:11.347Z,21.07
2022-08-23T06:31:46.869Z,21.12
2022-08-23T06:34:22.260Z,21.22
2022-08-23T06:36:58.855Z,21.30
2022-08-23T06:39:28.295Z,21.42
2022-08-23T06:42:00.841Z,21.56
2022-08-23T06:44:28.830Z,21.68
2022-08-23T06:46:58.567Z,21.78
2022-08-23T06:49:25.984Z,21.92
2022-08-23T06:51:53.686Z,22.08
2022-08-23T06:54:24.194Z,22.16
2022-08-23T06:56:54.098Z,22.28
2022-08-23T06:59:22.538Z,22.46
2022-08-23T07:01:53.899Z,22.65
2022-08-23T07:04:24.459Z,23.04
2022-08-23T07:06:51.409Z,23.25
2022-08-23T07:09:18.782Z,23.23
2022-08-23T07:11:46.138Z,23.18
2022-08-23T07:14:15.369Z,23.53
2022-08-23T07:16:45.887Z,24.08
2022-08-23T07:19:12.974Z,24.69
2022-08-23T07:21:39.629Z,25.17
2022-08-23T07:24:06.783Z,25.34
2022-08-23T07:26:33.305Z,25.59
2022-08-23T07:28:59.901Z,25.58
2022-08-23T07:31:30.933Z,25.63
2022-08-23T07:33:59.481Z,25.89
2022-08-23T07:36:28.013Z,25.82
2022-08-23T07:38:55.967Z,26.35
2022-08-23T07:41:30.989Z,26.57
2022-08-23T07:44:03.963Z,26.54
2022-08-23T07:46:33.038Z,26.50
2022-08-23T07:49:01.430Z,26.88
2022-08-23T07:51:30.477Z,27.35
2022-08-23T07:53:57.867Z,27.58
2022-08-23T07:56:25.109Z,27.77
2022-08-23T07:58:51.761Z,28.13
2022-08-23T08:01:25.755Z,28.11
2022-08-23T08:04:00.515Z,28.04
2022-08-23T08:06:31.110Z,27.95
2022-08-23T08:08:58.804Z,28.15
2022-08-23T08:11:30.873Z,28.34
2022-08-23T08:14:05.810Z,28.29
2022-08-23T08:16:37.226Z,28.28
2022-08-23T08:19:07.708Z,28.31
2022-08-23T08:21:36.109Z,27.94
2022-08-23T08:24:08.126Z,28.25
2022-08-23T08:26:34.871Z,28.44
2022-08-23T08:29:01.631Z,28.32
2022-08-23T08:31:28.538Z,28.47
2022-08-23T08:33:55.098Z,28.42
2022-08-23T08:36:29.284Z,28.56
2022-08-23T08:38:58.745Z,28.38
2022-08-23T08:41:33.717Z,28.53
2022-08-23T08:44:22.174Z,28.59
2022-08-23T08:46:53.292Z,28.30
2022-08-23T08:49:42.938Z,28.11
2022-08-23T08:52:32.255Z,28.35
2022-08-23T08:55:33.055Z,28.81
2022-08-23T08:58:01.681Z,28.94
2022-08-23T09:00:32.521Z,29.07
2022-08-23T09:03:01.172Z,29.13
2022-08-23T09:05:32.691Z,29.05
2022-08-23T09:08:28.666Z,28.81
2022-08-23T09:11:33.702Z,28.95
2022-08-23T09:14:15.642Z,28.96
2022-08-23T09:16:57.764Z,29.17
2022-08-23T09:19:25.136Z,29.09
2022-08-23T09:22:05.361Z,29.08
2022-08-23T09:24:32.969Z,28.73
2022-08-23T09:26:59.690Z,28.96
2022-08-23T09:29:30.560Z,29.06
2022-08-23T09:32:02.629Z,29.23
2022-08-23T09:34:38.091Z,29.32
2022-08-23T09:37:10.905Z,29.39
2022-08-23T09:39:50.797Z,29.45
2022-08-23T09:42:29.829Z,29.46
2022-08-23T09:44:57.319Z,29.41
2022-08-23T09:47:43.983Z,29.34
2022-08-23T09:50:34.250Z,29.33
2022-08-23T09:53:04.872Z,29.35
2022-08-23T09:55:44.449Z,29.38
2022-08-23T09:58:23.593Z,29.26
2022-08-23T10:01:13.669Z,29.28
2022-08-23T10:03:42.697Z,29.42
2022-08-23T10:06:12.508Z,29.24
2022-08-23T10:08:56.225Z,29.34
2022-08-23T10:11:40.898Z,29.55
2022-08-23T10:14:09.871Z,29.52
2022-08-23T10:16:45.810Z,29.23
2022-08-23T10:19:36.503Z,29.22
2022-08-23T10:22:23.164Z,29.26
2022-08-23T10:25:05.605Z,28.93
2022-08-23T10:28:25.331Z,29.10
2022-08-23T10:31:00.145Z,29.26
2022-08-23T10:33:38.575Z,29.32
2022-08-23T10:36:20.196Z,29.33
2022-08-23T10:39:19.096Z,29.30
2022-08-23T10:41:57.758Z,29.22
2022-08-23T10:44:33.216Z,29.04
2022-08-23T10:47:24.399Z,29.03
2022-08-23T10:49:53.141Z,29.14
2022-08-23T10:52:26.833Z,29.12
2022-08-23T10:55:06.083Z,29.18
2022-08-23T10:57:37.232Z,29.04
2022-08-23T11:00:09.412Z,29.19
2022-08-23T11:02:42.830Z,29.13
2022-08-23T11:05:28.909Z,29.04
2022-08-23T11:08:07.595Z,29.01
2022-08-23T11:10:40.024Z,28.78
2022-08-23T11:13:21.423Z,28.65
2022-08-23T11:16:01.012Z,28.63
2022-08-23T11:18:34.005Z,28.46
2022-08-23T11:21:18.652Z,28.41
2022-08-23T11:23:58.295Z,28.44
2022-08-23T11:26:28.102Z,28.38
2022-08-23T11:29:17.356Z,28.48
2022-08-23T11:32:39.806Z,28.84
2022-08-23T11:35:27.918Z,28.94
2022-08-23T11:37:59.849Z,29.15
2022-08-23T11:40:50.792Z,29.55
2022-08-23T11:43:39.067Z,29.43
2022-08-23T11:46:20.992Z,29.37
2022-08-23T11:49:05.334Z,29.37
2022-08-23T11:51:49.588Z,29.39
2022-08-23T11:54:50.190Z,29.20
2022-08-23T11:57:45.630Z,29.05
2022-08-23T12:00:29.436Z,29.31
2022-08-23T12:03:34.844Z,29.63
2022-08-23T12:06:51.001Z,29.46
2022-08-23T12:09:21.063Z,29.25
2022-08-23T12:11:56.502Z,29.10
2022-08-23T12:14:32.320Z,29.24
2022-08-23T12:17:01.742Z,29.33
2022-08-23T12:19:46.641Z,29.46
2022-08-23T12:22:18.522Z,29.55
2022-08-23T12:24:52.552Z,29.66
2022-08-23T12:27:19.345Z,29.55
2022-08-23T12:29:48.977Z,29.32
2022-08-23T12:32:21.547Z,29.27
2022-08-23T12:35:13.372Z,29.57
2022-08-23T12:38:07.025Z,29.33
2022-08-23T12:40:43.579Z,29.11
2022-08-23T12:43:30.535Z,28.99
2022-08-23T12:46:01.256Z,29.00
2022-08-23T12:48:34.142Z,29.05
2022-08-23T12:51:04.058Z,28.90
2022-08-23T12:53:45.414Z,29.00
2022-08-23T12:56:31.522Z,29.08
2022-08-23T12:59:04.523Z,29.30
2022-08-23T13:01:37.528Z,29.25
2022-08-23T13:04:08.749Z,29.26
2022-08-23T13:06:46.195Z,29.22
2022-08-23T13:09:24.481Z,29.21
2022-08-23T13:11:52.445Z,29.05
2022-08-23T13:14:42.696Z,28.92
2022-08-23T13:17:18.215Z,28.92
2022-08-23T13:19:47.593Z,28.87
2022-08-23T13:22:24.482Z,28.83
2022-08-23T13:28:20.821Z,28.76
2022-08-23T13:31:02.345Z,28.45
2022-08-23T13:33:31.095Z,27.96
2022-08-23T13:36:16.604Z,27.71
2022-08-23T13:38:44.894Z,27.43
2022-08-23T13:41:30.443Z,27.29
2022-08-23T13:43:57.451Z,27.17
2022-08-23T13:46:27.202Z,27.18
2022-08-23T13:49:12.963Z,27.26
2022-08-23T13:52:18.660Z,27.25
2022-08-23T13:54:52.515Z,27.11
2022-08-23T13:57:21.979Z,26.90
2022-08-23T13:59:55.427Z,26.90
2022-08-23T14:02:24.092Z,26.72
2022-08-23T14:04:51.081Z,26.65
2022-08-23T14:07:17.688Z,26.39
2022-08-23T14:09:44.602Z,26.39
2022-08-23T14:12:24.302Z,26.35
2022-08-23T14:14:57.263Z,26.23
2022-08-23T14:17:24.007Z,26.21
2022-08-23T14:22:37.389Z,26.18
2022-08-23T14:25:06.379Z,26.15
2022-08-23T14:27:34.577Z,26.08
2022-08-23T14:30:01.413Z,26.14
2022-08-23T14:32:28.667Z,26.12
2022-08-23T14:34:55.596Z,26.21
2022-08-23T14:38:02.965Z,26.05
2022-08-23T14:40:09.562Z,26.06
2022-08-23T14:42:36.355Z,26.05
2022-08-23T14:45:04.389Z,25.98
2022-08-23T14:47:31.328Z,25.79
2022-08-23T14:49:57.933Z,25.71
2022-08-23T14:52:24.623Z,25.77
2022-08-23T14:54:51.302Z,25.80
2022-08-23T14:57:18.368Z,25.80
2022-08-23T14:59:44.989Z,25.73
2022-08-23T15:02:16.322Z,25.59
2022-08-23T15:04:42.911Z,25.79
2022-08-23T15:07:18.599Z,25.72
2022-08-23T15:09:47.030Z,25.51
2022-08-23T15:12:57.713Z,25.59
2022-08-23T15:15:00.258Z,25.48
2022-08-23T15:17:31.251Z,25.51
2022-08-23T15:19:58.597Z,25.70
2022-08-23T15:22:26.032Z,25.37
2022-08-23T15:24:53.124Z,25.25
2022-08-23T15:27:21.222Z,25.27
2022-08-23T15:29:48.094Z,25.54
2022-08-23T15:32:14.911Z,25.40
2022-08-23T15:34:49.354Z,25.40
2022-08-23T15:37:16.288Z,25.38
2022-08-23T15:39:43.333Z,25.32
2022-08-23T15:42:10.259Z,25.30
2022-08-23T15:44:37.218Z,25.21
2022-08-23T15:47:12.941Z,25.23
2022-08-23T15:49:39.744Z,25.20
2022-08-23T15:52:06.584Z,25.40
2022-08-23T15:54:33.382Z,25.40
2022-08-23T15:57:00.335Z,25.30
2022-08-23T15:59:27.195Z,25.11
2022-08-23T16:01:54.055Z,25.24
2022-08-23T16:04:21.146Z,25.17
2022-08-23T16:06:48.280Z,25.06
2022-08-23T16:09:21.449Z,25.15
2022-08-23T16:11:49.273Z,25.33
2022-08-23T16:14:16.407Z,25.20
2022-08-23T16:16:46.418Z,25.16
2022-08-23T16:19:14.258Z,25.05
2022-08-23T16:21:43.649Z,24.85
2022-08-23T16:24:10.654Z,24.74
2022-08-23T16:26:39.285Z,24.65
2022-08-23T16:29:10.908Z,24.61
2022-08-23T16:31:39.884Z,24.64
2022-08-23T16:34:10.026Z,24.74
2022-08-23T16:36:38.340Z,24.72
2022-08-23T16:39:05.496Z,24.53
2022-08-23T16:41:32.404Z,24.53
2022-08-23T16:43:58.909Z,24.51
2022-08-23T16:46:27.987Z,24.48
2022-08-23T16:48:54.909Z,24.45
2022-08-23T16:51:21.891Z,24.36
2022-08-23T16:54:01.786Z,24.37
2022-08-23T16:56:34.135Z,24.32
2022-08-23T16:59:02.009Z,24.30
2022-08-23T17:01:30.292Z,24.24
2022-08-23T17:03:57.079Z,24.33
2022-08-23T17:06:23.683Z,24.45
2022-08-23T17:08:50.322Z,24.53
2022-08-23T17:11:19.082Z,24.46
2022-08-23T17:13:46.150Z,24.58
2022-08-23T17:16:13.166Z,24.29
2022-08-23T17:18:39.985Z,24.18
2022-08-23T17:21:07.124Z,24.10
2022-08-23T17:23:34.081Z,23.94
2022-08-23T17:26:06.067Z,23.86
2022-08-23T17:28:32.873Z,23.86
2022-08-23T17:30:59.468Z,23.96
2022-08-23T17:33:26.084Z,24.05
2022-08-23T17:35:52.768Z,24.23
2022-08-23T17:38:20.879Z,24.26
2022-08-23T17:40:47.646Z,24.19
2022-08-23T17:43:14.468Z,24.07
2022-08-23T17:45:46.957Z,24.02
2022-08-23T17:48:15.751Z,24.06
2022-08-23T17:50:43.722Z,23.98
2022-08-23T17:53:11.441Z,23.98
2022-08-23T17:55:39.582Z,23.97
2022-08-23T17:58:08.787Z,23.98
2022-08-23T18:00:38.135Z,23.95
2022-08-23T18:03:05.228Z,23.87
2022-08-23T18:05:33.335Z,23.88
2022-08-23T18:08:01.506Z,23.80
2022-08-23T18:10:30.137Z,23.73
2022-08-23T18:12:57.612Z,23.78
2022-08-23T18:15:24.585Z,23.67
2022-08-23T18:17:53.907Z,23.61
2022-08-23T18:20:26.662Z,23.54
2022-08-23T18:22:54.782Z,23.46
2022-08-23T18:25:21.419Z,23.63
2022-08-23T18:28:06.155Z,23.49
2022-08-23T18:30:57.689Z,23.33
2022-08-23T18:33:31.734Z,23.21
2022-08-23T18:35:59.769Z,23.16
2022-08-23T18:38:26.376Z,23.04
2022-08-23T18:40:53.079Z,22.89
2022-08-23T18:43:26.312Z,22.73
2022-08-23T18:46:01.424Z,22.80
2022-08-23T18:48:28.106Z,22.77
2022-08-23T18:50:54.698Z,22.70
2022-08-23T18:53:21.612Z,22.63
2022-08-23T18:55:50.014Z,22.42
2022-08-23T18:58:18.069Z,22.67
2022-08-23T19:00:45.742Z,22.73
2022-08-23T19:03:15.935Z,22.73
2022-08-23T19:05:42.698Z,22.76
2022-08-23T19:08:10.585Z,22.72
2022-08-23T19:10:37.826Z,22.72
2022-08-23T19:13:04.626Z,22.64
2022-08-23T19:15:34.083Z,22.46
2022-08-23T19:18:01.839Z,22.47
2022-08-23T19:20:28.675Z,22.45
2022-08-23T19:22:58.254Z,22.47
2022-08-23T19:25:25.985Z,22.31
2022-08-23T19:27:52.658Z,22.31
2022-08-23T19:30:19.302Z,22.33
2022-08-23T19:32:46.923Z,22.37
2022-08-23T19:35:14.505Z,22.44
2022-08-23T19:37:41.502Z,22.48
2022-08-23T19:40:08.708Z,22.56
2022-08-23T19:42:37.291Z,22.58
2022-08-23T19:45:07.729Z,22.58
2022-08-23T19:47:34.885Z,22.62
2022-08-23T19:50:04.428Z,22.67
2022-08-23T19:52:31.642Z,22.65
2022-08-23T19:55:05.303Z,22.61
2022-08-23T19:57:32.888Z,22.56
2022-08-23T20:00:00.872Z,22.51
2022-08-23T20:02:28.677Z,22.47
2022-08-23T20:04:55.365Z,22.41
2022-08-23T20:07:22.046Z,22.35
2022-08-23T20:09:48.682Z,22.32
2022-08-23T20:12:17.654Z,22.27
2022-08-23T20:14:45.624Z,22.24
2022-08-23T20:17:12.277Z,22.21
2022-08-23T20:19:38.948Z,22.19
2022-08-23T20:22:24.082Z,22.16
2022-08-23T20:24:52.428Z,22.14
2022-08-23T20:27:24.037Z,22.09
2022-08-23T20:29:58.958Z,22.03
2022-08-23T20:32:26.451Z,22.05
2022-08-23T20:34:53.403Z,22.09
2022-08-23T20:37:20.019Z,22.05
2022-08-23T20:39:46.611Z,22.00
2022-08-23T20:42:13.261Z,21.95
2022-08-23T20:44:39.859Z,21.92
2022-08-23T20:47:06.634Z,21.76
2022-08-23T20:49:33.389Z,21.58
2022-08-23T20:52:00.017Z,21.50
2022-08-23T20:54:26.674Z,21.51
2022-08-23T20:56:53.399Z,21.43
2022-08-23T20:59:20.863Z,21.42
2022-08-23T21:01:48.203Z,21.47
2022-08-23T21:04:14.815Z,21.47
2022-08-23T21:06:47.437Z,21.51
2022-08-23T21:09:19.106Z,21.48
2022-08-23T21:11:47.319Z,21.40
2022-08-23T21:14:16.398Z,21.40
2022-08-23T21:16:44.706Z,21.43
2022-08-23T21:19:11.318Z,21.45
2022-08-23T21:21:41.593Z,21.45
2022-08-23T21:24:10.267Z,21.50
2022-08-23T21:26:37.778Z,21.46
2022-08-23T21:29:06.049Z,21.38
2022-08-23T21:31:32.818Z,21.35
2022-08-23T21:34:00.603Z,21.36
2022-08-23T21:36:27.695Z,21.30
2022-08-23T21:38:54.511Z,21.32
2022-08-23T21:41:32.138Z,21.35
2022-08-23T21:43:58.902Z,21.37
2022-08-23T21:46:25.781Z,21.31
2022-08-23T21:48:52.488Z,21.36
2022-08-23T21:51:19.682Z,21.36
2022-08-23T21:53:47.516Z,21.53
2022-08-23T21:56:14.823Z,21.43
2022-08-23T21:58:41.485Z,21.38
2022-08-23T22:01:09.092Z,21.37
2022-08-23T22:03:36.217Z,21.33
2022-08-23T22:06:03.899Z,21.33
2022-08-23T22:08:30.831Z,21.33
2022-08-23T22:10:59.437Z,21.32
2022-08-23T22:13:28.707Z,21.28
2022-08-23T22:15:55.634Z,21.29
2022-08-23T22:18:22.284Z,21.27
2022-08-23T22:20:49.103Z,21.20
2022-08-23T22:23:15.696Z,21.01
2022-08-23T22:25:42.286Z,20.99
2022-08-23T22:28:08.899Z,20.97
2022-08-23T22:30:35.590Z,20.96
2022-08-23T22:33:03.178Z,20.95
2022-08-23T22:35:34.204Z,20.99
2022-08-23T22:38:16.452Z,21.00
2022-08-23T22:40:51.094Z,20.95
2022-08-23T22:43:19.435Z,20.97
2022-08-23T22:45:57.579Z,20.98
2022-08-23T22:48:25.539Z,20.95
2022-08-23T22:51:04.338Z,20.96
2022-08-23T22:53:30.898Z,20.86
2022-08-23T22:55:57.477Z,20.87
2022-08-23T22:58:24.051Z,20.90
2022-08-23T23:00:50.655Z,20.90
2022-08-23T23:03:17.767Z,20.89
2022-08-23T23:05:44.803Z,21.02
2022-08-23T23:08:29.594Z,21.17
2022-08-23T23:11:02.498Z,21.00
2022-08-23T23:13:31.503Z,20.93
2022-08-23T23:16:02.278Z,20.71
2022-08-23T23:18:29.015Z,20.62
2022-08-23T23:21:00.773Z,20.67
2022-08-23T23:23:28.922Z,20.50
2022-08-23T23:25:55.569Z,20.57
2022-08-23T23:28:22.782Z,20.43
2022-08-23T23:30:51.820Z,20.53
2022-08-23T23:33:20.610Z,20.55
2022-08-23T23:35:48.624Z,20.64
2022-08-23T23:38:16.015Z,20.56
2022-08-23T23:40:43.690Z,20.59
2022-08-23T23:43:12.888Z,20.60
2022-08-23T23:45:40.321Z,20.73
2022-08-23T23:48:08.463Z,20.69
2022-08-23T23:50:35.725Z,20.73
2022-08-23T23:53:02.589Z,20.65
2022-08-23T23:55:29.453Z,20.61
2022-08-23T23:57:56.265Z,20.44
